Time;durP1;ratioP1;P1;durP2;ratioP2;P2;SDS_P1;SDS_P2;PMS_P1;PMS_P2;Temp;Humidity;BMP_temperature;BMP_pressure;BME280_temperature;BME280_humidity;BME280_pressure;Samples;Min_cycle;Max_cycle;Signal;HPM_P1;HPM_P2
2022/09/19 00:01:10;;;;;;;;;;;;;;;12.57;100.00;99358.63;10543246;28;19931;-75
2022/09/19 00:06:14;;;;;;;;;;;;;;;12.46;100.00;99367.69;10559673;28;19927;-68
2022/09/19 00:11:19;;;;;;;;;;;;;;;12.49;100.00;99357.19;10584751;28;20343;-68
2022/09/19 00:16:24;;;;;;;;;;;;;;;12.47;100.00;99365.06;10584404;28;19934;-72
2022/09/19 00:21:28;;;;;;;;;;;;;;;12.35;100.00;99360.25;10584673;28;20454;-75
2022/09/19 00:26:31;;;;;;;;;;;;;;;12.30;100.00;99361.31;10584736;28;19959;-75
2022/09/19 00:31:36;;;;;;;;;;;;;;;12.28;100.00;99363.09;10583130;28;20014;-67
2022/09/19 00:36:40;;;;;;;;;;;;;;;12.33;100.00;99363.78;10584024;28;19924;-68
2022/09/19 00:41:44;;;;;;;;;;;;;;;12.04;100.00;99356.09;10583595;28;19938;-66
2022/09/19 00:46:49;;;;;;;;;;;;;;;11.99;100.00;99366.66;10583301;28;19938;-65
2022/09/19 00:51:55;;;;;;;;;;;;;;;11.96;100.00;99368.50;10583810;28;20246;-67
2022/09/19 00:56:58;;;;;;;;;;;;;;;11.89;100.00;99362.63;10585677;28;19988;-67
2022/09/19 01:02:04;;;;;;;;;;;;;;;12.00;99.95;99362.28;10584004;28;19948;-65
2022/09/19 01:07:13;;;;;;;;;;;;;;;12.08;98.92;99355.09;10559812;28;20360;-66
2022/09/19 01:12:23;;;;;;;;;;;;;;;11.91;98.80;99358.22;10541212;28;19993;-66
2022/09/19 01:17:31;;;;;;;;;;;;;;;11.97;99.45;99362.38;10543355;28;19934;-73
2022/09/19 01:22:41;;;;;;;;;;;;;;;12.02;98.60;99350.09;10545454;28;19938;-75
2022/09/19 01:28:11;;;;;;;;;;;;;;;12.06;98.91;99362.09;10545707;28;19928;-73
2022/09/19 01:33:18;;;;;;;;;;;;;;;12.04;98.46;99349.16;10509716;28;19928;-74
2022/09/19 01:38:24;;;;;;;;;;;;;;;12.06;97.84;99362.09;10545502;28;19924;-73
2022/09/19 01:43:27;;;;;;;;;;;;;;;12.02;98.49;99360.50;10544935;28;20028;-77
2022/09/19 01:48:38;;;;;;;;;;;;;;;11.96;97.04;99371.94;10545389;28;19937;-77
2022/09/19 01:53:50;;;;;;;;;;;;;;;11.65;98.25;99365.97;10544656;28;19924;-76
2022/09/19 01:58:58;;;;;;;;;;;;;;;11.52;98.92;99370.69;10545147;28;19924;-78
2022/09/19 02:04:10;;;;;;;;;;;;;;;11.46;98.85;99385.56;10544867;28;19924;-73
2022/09/19 02:09:19;;;;;;;;;;;;;;;11.46;98.73;99382.97;10544067;28;19925;-75
2022/09/19 02:14:26;;;;;;;;;;;;;;;11.32;99.72;99390.34;10544038;28;20258;-74
2022/09/19 02:19:32;;;;;;;;;;;;;;;11.47;99.75;99388.16;10543792;28;19924;-75
2022/09/19 02:24:38;;;;;;;;;;;;;;;11.42;98.51;99390.00;10543946;28;19988;-73
2022/09/19 02:29:44;;;;;;;;;;;;;;;11.27;99.00;99394.78;10543910;28;19946;-74
2022/09/19 02:34:49;;;;;;;;;;;;;;;11.31;98.65;99394.69;10543533;28;20238;-74
2022/09/19 02:39:58;;;;;;;;;;;;;;;11.26;97.98;99393.09;10543562;28;19924;-77
2022/09/19 02:45:08;;;;;;;;;;;;;;;11.30;98.21;99392.94;10543135;28;20018;-73
2022/09/19 02:50:16;;;;;;;;;;;;;;;11.14;97.82;99394.31;10542880;28;19976;-72
2022/09/19 02:55:23;;;;;;;;;;;;;;;11.00;99.46;99393.81;10544359;28;20283;-73
2022/09/19 03:00:26;;;;;;;;;;;;;;;10.92;100.00;99398.38;10551531;28;20253;-73
2022/09/19 03:05:32;;;;;;;;;;;;;;;10.91;99.57;99406.19;10551332;28;19949;-74
2022/09/19 03:10:36;;;;;;;;;;;;;;;10.92;99.66;99395.78;10551108;28;20022;-76
2022/09/19 03:15:44;;;;;;;;;;;;;;;11.04;99.14;99395.47;10550727;28;19924;-71
2022/09/19 03:20:49;;;;;;;;;;;;;;;10.99;98.88;99397.28;10550815;28;20368;-76
2022/09/19 03:25:52;;;;;;;;;;;;;;;10.96;99.36;99404.34;10550761;28;19973;-78
2022/09/19 03:30:59;;;;;;;;;;;;;;;11.07;99.18;99410.09;10550363;28;19939;-73
2022/09/19 03:36:07;;;;;;;;;;;;;;;11.07;99.97;99420.47;10548366;28;20018;-72
2022/09/19 03:41:11;;;;;;;;;;;;;;;11.12;98.80;99418.59;10521129;28;19931;-71
2022/09/19 03:46:15;;;;;;;;;;;;;;;10.86;99.97;99419.31;10507963;28;19929;-75
2022/09/19 03:51:25;;;;;;;;;;;;;;;10.92;100.00;99421.75;10363174;28;10000511;-68
2022/09/19 03:56:28;;;;;;;;;;;;;;;10.85;100.00;99421.94;10578178;28;19985;-66
2022/09/19 04:01:32;;;;;;;;;;;;;;;10.79;100.00;99429.88;10544729;28;20027;-66
2022/09/19 04:06:37;;;;;;;;;;;;;;;10.66;100.00;99436.28;10543468;28;20003;-76
2022/09/19 04:11:41;;;;;;;;;;;;;;;10.89;100.00;99437.38;10542691;28;19938;-77
2022/09/19 04:16:44;;;;;;;;;;;;;;;10.83;100.00;99439.28;10542279;28;19924;-77
2022/09/19 04:21:49;;;;;;;;;;;;;;;10.70;100.00;99446.53;10542976;28;19928;-77
2022/09/19 04:26:52;;;;;;;;;;;;;;;10.66;100.00;99446.66;10542440;28;20348;-76
2022/09/19 04:31:55;;;;;;;;;;;;;;;10.77;100.00;99450.69;10537506;28;19963;-74
2022/09/19 04:37:03;;;;;;;;;;;;;;;10.83;100.00;99457.47;10530464;28;20010;-74
2022/09/19 04:42:06;;;;;;;;;;;;;;;10.72;100.00;99455.13;10533730;28;19932;-78
2022/09/19 04:47:10;;;;;;;;;;;;;;;10.56;100.00;99464.19;10507184;28;19963;-77
2022/09/19 04:52:15;;;;;;;;;;;;;;;10.70;100.00;99471.66;10512975;28;20018;-78
2022/09/19 04:57:18;;;;;;;;;;;;;;;10.77;100.00;99468.84;10519212;28;20305;-78
2022/09/19 05:02:21;;;;;;;;;;;;;;;10.46;100.00;99467.88;10540725;28;20252;-70
2022/09/19 05:07:28;;;;;;;;;;;;;;;10.65;100.00;99478.69;10539702;28;20035;-72
2022/09/19 05:12:31;;;;;;;;;;;;;;;10.65;100.00;99484.72;10539704;28;19928;-72
2022/09/19 05:17:34;;;;;;;;;;;;;;;10.75;100.00;99488.78;10538091;28;19931;-71
2022/09/19 05:22:38;;;;;;;;;;;;;;;10.84;99.91;99485.09;10539717;28;19942;-72
2022/09/19 05:27:41;;;;;;;;;;;;;;;10.75;100.00;99493.97;10506972;28;19925;-67
2022/09/19 05:32:44;;;;;;;;;;;;;;;10.75;99.94;99499.16;10499349;28;19940;-68
2022/09/19 05:37:49;;;;;;;;;;;;;;;10.71;100.00;99501.88;10530695;28;20279;-75
2022/09/19 05:42:53;;;;;;;;;;;;;;;10.81;100.00;99504.22;10539217;28;20337;-76
2022/09/19 05:48:00;;;;;;;;;;;;;;;11.05;97.73;99510.53;10505278;28;20372;-73
2022/09/19 05:58:24;;;;;;;;;;;;;;;11.02;98.05;99519.28;10514836;28;19932;-74
2022/09/19 06:03:28;;;;;;;;;;;;;;;11.10;97.98;99519.06;10537931;28;20022;-74
2022/09/19 06:08:32;;;;;;;;;;;;;;;10.87;98.35;99530.00;10502009;28;20339;-77
2022/09/19 06:18:56;;;;;;;;;;;;;;;10.98;98.03;99538.41;10534335;28;19928;-77
2022/09/19 06:24:02;;;;;;;;;;;;;;;10.86;98.99;99546.50;10520632;28;20360;-75
2022/09/19 06:29:06;;;;;;;;;;;;;;;10.81;99.24;99553.53;10517211;28;19924;-75
2022/09/19 06:34:12;;;;;;;;;;;;;;;10.92;99.92;99555.88;10535770;28;19969;-75
2022/09/19 06:39:16;;;;;;;;;;;;;;;10.81;99.09;99565.66;10535815;28;19938;-74
2022/09/19 06:44:20;;;;;;;;;;;;;;;10.74;100.00;99564.97;10532953;28;19928;-77
2022/09/19 06:49:23;;;;;;;;;;;;;;;10.87;100.00;99565.53;10521216;28;19924;-73
2022/09/19 06:54:27;;;;;;;;;;;;;;;11.09;100.00;99572.75;10538265;28;19955;-65
2022/09/19 06:59:30;;;;;;;;;;;;;;;11.13;100.00;99583.94;10525722;28;19932;-69
2022/09/19 07:04:34;;;;;;;;;;;;;;;11.26;100.00;99586.19;10537772;28;19924;-71
2022/09/19 07:09:38;;;;;;;;;;;;;;;11.26;98.64;99595.69;10524158;28;20014;-73
2022/09/19 07:14:41;;;;;;;;;;;;;;;11.02;100.00;99593.72;10533948;28;19928;-72
2022/09/19 07:19:44;;;;;;;;;;;;;;;11.12;100.00;99603.84;10524571;28;19939;-70
2022/09/19 07:24:49;;;;;;;;;;;;;;;11.21;100.00;99606.22;10531044;28;19928;-71
2022/09/19 07:29:52;;;;;;;;;;;;;;;11.33;98.83;99610.25;10528410;28;19939;-73
2022/09/19 07:34:55;;;;;;;;;;;;;;;11.03;100.00;99630.03;10535101;28;19935;-73
2022/09/19 07:40:00;;;;;;;;;;;;;;;11.02;100.00;99620.53;10532057;28;19933;-78
2022/09/19 07:45:12;;;;;;;;;;;;;;;10.99;100.00;99630.13;10542067;28;19953;-78
2022/09/19 07:50:16;;;;;;;;;;;;;;;11.22;100.00;99641.69;10538228;28;20047;-68
2022/09/19 07:55:21;;;;;;;;;;;;;;;11.38;100.00;99631.75;10538408;28;19928;-70
2022/09/19 08:00:25;;;;;;;;;;;;;;;11.32;100.00;99653.53;10542052;28;19985;-75
2022/09/19 08:05:29;;;;;;;;;;;;;;;11.29;100.00;99645.84;10527523;28;19940;-75
2022/09/19 08:10:34;;;;;;;;;;;;;;;11.17;100.00;99658.25;10541265;28;20408;-68
2022/09/19 08:15:37;;;;;;;;;;;;;;;11.04;100.00;99655.13;10539911;28;20280;-70
2022/09/19 08:20:41;;;;;;;;;;;;;;;11.15;100.00;99666.09;10537791;28;19997;-67
2022/09/19 08:25:47;;;;;;;;;;;;;;;10.93;100.00;99657.09;10540625;28;19967;-78
2022/09/19 08:30:50;;;;;;;;;;;;;;;10.83;100.00;99670.31;10191211;28;10000080;-75
2022/09/19 08:35:53;;;;;;;;;;;;;;;11.04;100.00;99675.88;10541400;28;20011;-77
2022/09/19 08:41:05;;;;;;;;;;;;;;;11.27;100.00;99686.56;10540158;28;19928;-77
2022/09/19 08:46:13;;;;;;;;;;;;;;;11.36;100.00;99691.56;10538352;28;20023;-77
2022/09/19 08:51:20;;;;;;;;;;;;;;;11.34;100.00;99690.75;10537557;28;20287;-77
2022/09/19 08:56:26;;;;;;;;;;;;;;;11.23;100.00;99697.91;10538574;28;19958;-78
2022/09/19 09:01:31;;;;;;;;;;;;;;;11.20;100.00;99703.19;10537348;28;19932;-77
2022/09/19 09:06:38;;;;;;;;;;;;;;;11.39;100.00;99706.19;10537909;28;19977;-78
2022/09/19 09:11:49;;;;;;;;;;;;;;;11.29;100.00;99703.00;10540462;28;20065;-79
2022/09/19 09:17:01;;;;;;;;;;;;;;;11.18;100.00;99710.16;10536609;28;20062;-82
2022/09/19 09:22:10;;;;;;;;;;;;;;;11.37;100.00;99711.44;10532848;28;20371;-79
2022/09/19 09:27:19;;;;;;;;;;;;;;;11.41;100.00;99715.69;10538581;28;20242;-76
2022/09/19 09:32:28;;;;;;;;;;;;;;;11.51;100.00;99716.31;10514993;28;19924;-78
2022/09/19 09:37:39;;;;;;;;;;;;;;;11.44;100.00;99715.59;10497507;28;20383;-73
2022/09/19 09:42:50;;;;;;;;;;;;;;;11.25;100.00;99722.13;10497074;28;19925;-76
2022/09/19 09:48:01;;;;;;;;;;;;;;;11.37;100.00;99721.00;10497847;28;20019;-77
2022/09/19 09:53:10;;;;;;;;;;;;;;;11.62;100.00;99730.78;10497249;28;19924;-75
2022/09/19 09:58:19;;;;;;;;;;;;;;;11.63;100.00;99729.88;10500515;28;20372;-77
2022/09/19 10:03:36;;;;;;;;;;;;;;;11.59;100.00;99738.66;10539533;28;19980;-76
2022/09/19 10:08:43;;;;;;;;;;;;;;;11.54;100.00;99739.66;10533036;28;19973;-76
2022/09/19 10:13:49;;;;;;;;;;;;;;;11.80;100.00;99741.63;10537740;28;19928;-74
2022/09/19 10:18:56;;;;;;;;;;;;;;;11.69;100.00;99748.84;10536221;28;19927;-76
2022/09/19 10:23:59;;;;;;;;;;;;;;;11.82;100.00;99745.88;10538145;28;19957;-75
2022/09/19 10:29:14;;;;;;;;;;;;;;;11.81;100.00;99764.13;10537729;28;19924;-78
2022/09/19 10:34:24;;;;;;;;;;;;;;;11.88;100.00;99755.28;10569439;28;20370;-73
2022/09/19 10:39:27;;;;;;;;;;;;;;;11.81;100.00;99769.31;10512840;28;19951;-76
2022/09/19 10:44:31;;;;;;;;;;;;;;;11.77;100.00;99762.53;10514020;28;20593;-78
2022/09/19 10:49:39;;;;;;;;;;;;;;;11.89;100.00;99767.41;10503730;28;19966;-77
2022/09/19 10:54:43;;;;;;;;;;;;;;;11.79;100.00;99773.72;10536981;28;20031;-76
2022/09/19 10:59:52;;;;;;;;;;;;;;;11.93;100.00;99782.03;10528252;28;19929;-79
2022/09/19 11:04:59;;;;;;;;;;;;;;;11.85;100.00;99789.16;10494587;28;20340;-76
2022/09/19 11:10:09;;;;;;;;;;;;;;;11.74;100.00;99786.84;10495937;28;20387;-75
2022/09/19 11:15:16;;;;;;;;;;;;;;;11.96;100.00;99784.56;10494258;28;19938;-65
2022/09/19 11:20:23;;;;;;;;;;;;;;;11.91;100.00;99791.63;10512377;28;19928;-68
2022/09/19 11:25:29;;;;;;;;;;;;;;;11.85;100.00;99791.78;10545540;28;19943;-70
2022/09/19 11:30:36;;;;;;;;;;;;;;;11.86;100.00;99783.06;10545831;28;19942;-69
2022/09/19 11:35:44;;;;;;;;;;;;;;;11.88;100.00;99799.50;10550005;28;19930;-76
2022/09/19 11:40:56;;;;;;;;;;;;;;;11.97;100.00;99794.94;10194168;28;9999917;-74
2022/09/19 11:46:05;;;;;;;;;;;;;;;12.06;100.00;99794.69;10543843;28;20252;-75
2022/09/19 11:51:12;;;;;;;;;;;;;;;12.03;100.00;99788.75;10543532;28;20264;-77
2022/09/19 11:56:35;;;;;;;;;;;;;;;12.07;100.00;99796.41;10543405;28;19924;-74
2022/09/19 12:01:46;;;;;;;;;;;;;;;12.19;100.00;99797.84;10542629;28;19930;-75
2022/09/19 12:06:57;;;;;;;;;;;;;;;12.14;100.00;99797.09;10543706;28;19924;-75
2022/09/19 12:12:03;;;;;;;;;;;;;;;12.20;100.00;99797.78;10526763;28;19924;-74
2022/09/19 12:17:16;;;;;;;;;;;;;;;12.22;100.00;99796.00;10501187;28;19940;-75
2022/09/19 12:22:23;;;;;;;;;;;;;;;12.38;100.00;99806.88;10520201;28;20356;-76
2022/09/19 12:27:33;;;;;;;;;;;;;;;12.20;100.00;99804.75;10541382;28;19934;-73
2022/09/19 12:32:47;;;;;;;;;;;;;;;12.16;100.00;99814.41;10523794;28;19925;-73
2022/09/19 12:38:02;;;;;;;;;;;;;;;12.13;100.00;99804.03;10505155;28;19937;-72
2022/09/19 12:43:11;;;;;;;;;;;;;;;12.12;100.00;99815.34;10505577;28;19982;-73
2022/09/19 12:48:19;;;;;;;;;;;;;;;11.95;100.00;99814.06;10505438;28;19924;-73
2022/09/19 12:53:32;;;;;;;;;;;;;;;12.10;100.00;99813.66;10505932;28;20019;-73
2022/09/19 12:58:44;;;;;;;;;;;;;;;12.18;100.00;99816.94;10504863;28;20023;-75
2022/09/19 13:03:53;;;;;;;;;;;;;;;12.23;100.00;99820.28;10531184;28;20016;-73
2022/09/19 13:09:03;;;;;;;;;;;;;;;12.21;100.00;99828.13;10546360;28;19924;-72
2022/09/19 13:14:13;;;;;;;;;;;;;;;12.22;100.00;99828.97;10545456;28;19924;-73
2022/09/19 13:24:54;;;;;;;;;;;;;;;12.30;100.00;99837.47;10545099;28;19924;-66
2022/09/19 13:30:00;;;;;;;;;;;;;;;12.25;100.00;99840.16;10546427;28;20340;-75
2022/09/19 13:35:15;;;;;;;;;;;;;;;12.20;100.00;99842.03;10544008;28;19924;-73
2022/09/19 13:40:25;;;;;;;;;;;;;;;12.30;100.00;99853.06;10544590;28;20264;-65
2022/09/19 13:45:31;;;;;;;;;;;;;;;12.14;100.00;99856.94;10520399;28;20350;-65
2022/09/19 13:50:42;;;;;;;;;;;;;;;12.08;100.00;99860.53;10502590;28;19935;-63
2022/09/19 13:55:59;;;;;;;;;;;;;;;12.14;100.00;99857.78;10503142;28;20379;-65
2022/09/19 14:01:07;;;;;;;;;;;;;;;12.11;100.00;99860.47;10510814;28;20027;-72
2022/09/19 14:06:27;;;;;;;;;;;;;;;12.20;100.00;99864.59;10540125;28;20486;-72
2022/09/19 14:11:31;;;;;;;;;;;;;;;12.26;100.00;99859.22;10543754;28;19925;-71
2022/09/19 14:16:36;;;;;;;;;;;;;;;12.31;100.00;99865.19;10541019;28;19928;-71
2022/09/19 14:21:55;;;;;;;;;;;;;;;12.28;100.00;99865.25;10185682;28;9999668;-71
2022/09/19 14:27:07;;;;;;;;;;;;;;;12.06;100.00;99871.88;10535115;28;21263;-71
2022/09/19 14:32:20;;;;;;;;;;;;;;;12.23;100.00;99860.19;10526117;28;19938;-71
2022/09/19 14:37:43;;;;;;;;;;;;;;;12.26;100.00;99861.84;10530249;28;19939;-72
2022/09/19 14:42:56;;;;;;;;;;;;;;;12.15;100.00;99869.91;10532523;28;19981;-70
2022/09/19 14:48:01;;;;;;;;;;;;;;;12.19;100.00;99862.88;10530498;28;19979;-72
2022/09/19 14:53:07;;;;;;;;;;;;;;;12.27;100.00;99866.16;10531717;28;20076;-71
2022/09/19 14:58:23;;;;;;;;;;;;;;;12.27;100.00;99866.16;10535844;28;19924;-71
2022/09/19 15:03:26;;;;;;;;;;;;;;;11.98;100.00;99866.00;10533628;28;20027;-76
2022/09/19 15:08:30;;;;;;;;;;;;;;;11.90;100.00;99862.72;10530656;28;20475;-77
2022/09/19 15:13:35;;;;;;;;;;;;;;;11.98;100.00;99876.38;10527849;28;19939;-73
2022/09/19 15:18:39;;;;;;;;;;;;;;;12.04;100.00;99873.66;10514053;28;20502;-75
2022/09/19 15:23:44;;;;;;;;;;;;;;;12.05;100.00;99881.41;10577144;28;19935;-76
2022/09/19 15:28:59;;;;;;;;;;;;;;;12.02;100.00;99883.25;10578264;28;20020;-74
2022/09/19 15:34:04;;;;;;;;;;;;;;;12.01;100.00;99881.53;10578420;28;19928;-75
2022/09/19 15:39:10;;;;;;;;;;;;;;;12.02;100.00;99885.84;10577958;28;20002;-73
2022/09/19 15:44:25;;;;;;;;;;;;;;;12.19;100.00;99888.91;10577694;28;20577;-77
2022/09/19 15:49:30;;;;;;;;;;;;;;;12.03;100.00;99888.41;10577902;28;19924;-75
2022/09/19 15:54:36;;;;;;;;;;;;;;;12.05;100.00;99890.97;10578444;28;19928;-75
2022/09/19 15:59:46;;;;;;;;;;;;;;;12.07;100.00;99897.00;10584766;28;20319;-75
2022/09/19 16:05:02;;;;;;;;;;;;;;;12.15;100.00;99895.09;10565267;28;19966;-76
2022/09/19 16:10:10;;;;;;;;;;;;;;;12.06;100.00;99893.53;10514352;28;19924;-75
2022/09/19 16:15:22;;;;;;;;;;;;;;;11.90;100.00;99900.00;10544206;28;20028;-74
2022/09/19 16:20:38;;;;;;;;;;;;;;;11.92;100.00;99905.16;10563277;28;20010;-77
2022/09/19 16:25:43;;;;;;;;;;;;;;;11.95;100.00;99905.94;10568770;28;20345;-75
2022/09/19 16:30:55;;;;;;;;;;;;;;;12.01;100.00;99911.00;10543956;28;19928;-76
2022/09/19 16:36:00;;;;;;;;;;;;;;;12.02;100.00;99917.06;10544939;28;19928;-74
2022/09/19 16:41:07;;;;;;;;;;;;;;;12.07;100.00;99928.22;10542567;28;19932;-76
2022/09/19 16:46:13;;;;;;;;;;;;;;;12.09;100.00;99927.28;10541854;28;20032;-78
2022/09/19 16:51:17;;;;;;;;;;;;;;;12.10;100.00;99928.13;10542382;28;19924;-76
2022/09/19 16:56:20;;;;;;;;;;;;;;;12.15;100.00;99924.53;10540595;28;19928;-77
2022/09/19 17:01:25;;;;;;;;;;;;;;;12.11;100.00;99922.91;10537365;28;19981;-75
2022/09/19 17:06:29;;;;;;;;;;;;;;;12.10;100.00;99925.53;10530605;28;19928;-77
2022/09/19 17:11:32;;;;;;;;;;;;;;;12.00;100.00;99942.25;10539424;28;19924;-74
2022/09/19 17:16:36;;;;;;;;;;;;;;;12.04;100.00;99936.09;10536506;28;20018;-76
2022/09/19 17:21:41;;;;;;;;;;;;;;;11.97;100.00;99948.38;10511103;28;20359;-76
2022/09/19 17:26:45;;;;;;;;;;;;;;;11.95;100.00;99954.50;10500910;28;19924;-79
2022/09/19 17:31:50;;;;;;;;;;;;;;;11.95;100.00;99952.75;10540979;28;20007;-78
2022/09/19 17:36:53;;;;;;;;;;;;;;;12.18;100.00;99955.66;10530072;28;19960;-76
2022/09/19 17:41:56;;;;;;;;;;;;;;;12.18;100.00;99960.03;10498666;28;19938;-75
2022/09/19 17:47:00;;;;;;;;;;;;;;;12.11;100.00;99961.06;10497743;28;19929;-72
2022/09/19 17:52:05;;;;;;;;;;;;;;;12.18;100.00;99960.03;10497752;28;19928;-77
2022/09/19 17:57:08;;;;;;;;;;;;;;;12.28;100.00;99961.53;10496444;28;19971;-75
2022/09/19 18:07:33;;;;;;;;;;;;;;;12.18;100.00;99962.66;10496101;28;19925;-75
2022/09/19 18:12:36;;;;;;;;;;;;;;;12.17;100.00;99966.97;10496038;28;20250;-76
2022/09/19 18:17:41;;;;;;;;;;;;;;;12.21;100.00;99958.22;10496438;28;19924;-77
2022/09/19 18:22:44;;;;;;;;;;;;;;;12.17;100.00;99963.53;10548548;28;20371;-73
2022/09/19 18:27:47;;;;;;;;;;;;;;;12.20;100.00;99953.91;10528966;28;19929;-73
2022/09/19 18:32:52;;;;;;;;;;;;;;;12.23;100.00;99960.78;10526736;28;19934;-76
2022/09/19 18:37:55;;;;;;;;;;;;;;;12.24;100.00;99962.50;10537034;28;19970;-74
2022/09/19 18:42:58;;;;;;;;;;;;;;;12.22;100.00;99969.47;10536854;28;19938;-75
2022/09/19 18:48:03;;;;;;;;;;;;;;;12.23;100.00;99972.06;10539787;28;19924;-74
2022/09/19 18:53:06;;;;;;;;;;;;;;;12.20;100.00;99973.88;10542542;28;19932;-76
2022/09/19 18:58:09;;;;;;;;;;;;;;;12.26;100.00;99973.72;10537772;28;19924;-76
2022/09/19 19:03:15;;;;;;;;;;;;;;;12.20;100.00;99974.72;10538823;28;19924;-75
2022/09/19 19:08:18;;;;;;;;;;;;;;;12.17;100.00;99963.53;10538895;28;19962;-75
2022/09/19 19:13:22;;;;;;;;;;;;;;;12.15;100.00;99979.16;10536659;28;20032;-75
2022/09/19 19:18:26;;;;;;;;;;;;;;;12.03;100.00;99970.81;10536978;28;19936;-77
2022/09/19 19:23:29;;;;;;;;;;;;;;;12.15;100.00;99973.97;10539447;28;19938;-76
2022/09/19 19:28:32;;;;;;;;;;;;;;;12.23;100.00;99973.81;10538512;28;19932;-76
2022/09/19 19:33:36;;;;;;;;;;;;;;;12.19;100.00;99985.16;10537968;28;20011;-76
2022/09/19 19:38:41;;;;;;;;;;;;;;;12.21;100.00;99984.25;10538892;28;20401;-78
2022/09/19 19:43:44;;;;;;;;;;;;;;;12.23;100.00;99981.59;10543938;28;20388;-74
2022/09/19 19:48:49;;;;;;;;;;;;;;;12.28;100.00;99990.16;10541491;28;20381;-74
2022/09/19 19:53:54;;;;;;;;;;;;;;;12.29;100.00;99991.84;10533330;28;20034;-75
2022/09/19 19:58:57;;;;;;;;;;;;;;;12.38;100.00;99996.84;10501818;28;20245;-73
2022/09/19 20:04:06;;;;;;;;;;;;;;;12.45;100.00;99999.28;10501591;28;19948;-74
2022/09/19 20:09:11;;;;;;;;;;;;;;;12.45;100.00;99996.69;10536846;28;20651;-76
2022/09/19 20:14:15;;;;;;;;;;;;;;;12.46;100.00;99992.31;10542783;28;19924;-74
2022/09/19 20:19:20;;;;;;;;;;;;;;;12.47;100.00;99991.44;10542819;28;20022;-75
2022/09/19 20:24:24;;;;;;;;;;;;;;;12.47;100.00;99989.72;10543736;28;19936;-75
2022/09/19 20:29:28;;;;;;;;;;;;;;;12.56;100.00;99986.84;10558193;28;20692;-75
2022/09/19 20:34:32;;;;;;;;;;;;;;;12.54;100.00;99998.22;10530601;28;20019;-76
2022/09/19 20:39:35;;;;;;;;;;;;;;;12.61;100.00;99989.38;10516440;28;20004;-75
2022/09/19 20:44:39;;;;;;;;;;;;;;;12.51;100.00;99998.31;10541687;28;20487;-75
2022/09/19 20:49:43;;;;;;;;;;;;;;;12.49;100.00;99997.47;10540344;28;19928;-75
2022/09/19 20:54:46;;;;;;;;;;;;;;;12.55;100.00;99986.91;10516288;28;20352;-75
2022/09/19 20:59:50;;;;;;;;;;;;;;;12.64;100.00;99992.75;10535629;28;20407;-78
2022/09/19 21:04:54;;;;;;;;;;;;;;;12.52;100.00;99992.19;10519642;28;19935;-77
2022/09/19 21:09:57;;;;;;;;;;;;;;;12.54;100.00;99985.19;10534670;28;20349;-78
2022/09/19 21:15:00;;;;;;;;;;;;;;;12.58;100.00;99992.06;10539668;28;19934;-77
2022/09/19 21:20:05;;;;;;;;;;;;;;;12.58;100.00;99997.25;10541928;28;20269;-79
2022/09/19 21:25:09;;;;;;;;;;;;;;;12.59;100.00;100001.56;10540019;28;20425;-76
2022/09/19 21:30:12;;;;;;;;;;;;;;;12.55;100.00;100000.78;10537139;28;19955;-78
2022/09/19 21:35:16;;;;;;;;;;;;;;;12.60;100.00;99995.44;10543393;28;19960;-78
2022/09/19 21:40:19;;;;;;;;;;;;;;;12.52;100.00;99997.41;10540755;28;20034;-79
2022/09/19 21:45:23;;;;;;;;;;;;;;;12.50;100.00;99993.97;10539475;28;19924;-78
2022/09/19 21:50:27;;;;;;;;;;;;;;;12.43;100.00;100002.81;10541009;28;19956;-75
2022/09/19 21:55:30;;;;;;;;;;;;;;;12.50;100.00;99999.16;10539998;28;20368;-70
2022/09/19 22:00:33;;;;;;;;;;;;;;;12.47;100.00;100005.31;10538250;28;20367;-73
2022/09/19 22:05:37;;;;;;;;;;;;;;;12.37;100.00;100000.38;10538970;28;19934;-69
2022/09/19 22:10:40;;;;;;;;;;;;;;;12.34;100.00;100008.22;10538953;28;19932;-72
2022/09/19 22:15:43;;;;;;;;;;;;;;;12.42;100.00;100001.97;10537920;28;19928;-69
2022/09/19 22:20:48;;;;;;;;;;;;;;;12.43;100.00;100016.69;10560473;28;19927;-72
2022/09/19 22:25:55;;;;;;;;;;;;;;;12.51;100.00;100012.16;10579721;28;19930;-75
2022/09/19 22:30:58;;;;;;;;;;;;;;;12.45;100.00;100012.31;10579927;28;19924;-78
2022/09/19 22:36:02;;;;;;;;;;;;;;;12.43;100.00;100013.22;10579824;28;19978;-76
2022/09/19 22:41:07;;;;;;;;;;;;;;;12.32;100.00;100017.84;10579380;28;20371;-79
2022/09/19 22:46:11;;;;;;;;;;;;;;;12.44;100.00;100014.94;10522835;28;19940;-76
2022/09/19 22:51:17;;;;;;;;;;;;;;;12.51;100.00;100025.16;10511113;28;20008;-75
2022/09/19 22:56:21;;;;;;;;;;;;;;;12.42;100.00;100009.78;10537323;28;20372;-71
2022/09/19 23:01:26;;;;;;;;;;;;;;;12.41;100.00;100015.00;10537202;28;20365;-67
2022/09/19 23:06:33;;;;;;;;;;;;;;;12.36;100.00;100020.31;10527565;28;20389;-66
2022/09/19 23:11:36;;;;;;;;;;;;;;;12.35;100.00;100017.75;10496777;28;19924;-71
2022/09/19 23:16:40;;;;;;;;;;;;;;;12.39;100.00;100025.44;10508865;28;19924;-72
2022/09/19 23:21:46;;;;;;;;;;;;;;;12.40;100.00;100021.97;10509227;28;19971;-72
2022/09/19 23:26:49;;;;;;;;;;;;;;;12.40;100.00;100034.13;10510466;28;19932;-73
2022/09/19 23:31:52;;;;;;;;;;;;;;;12.40;100.00;100028.91;10508623;28;19929;-72
2022/09/19 23:36:56;;;;;;;;;;;;;;;12.43;100.00;100034.91;10508354;28;19924;-71
2022/09/19 23:41:59;;;;;;;;;;;;;;;12.41;100.00;100035.81;10508167;28;19935;-72
2022/09/19 23:47:02;;;;;;;;;;;;;;;12.39;100.00;100045.44;10507879;28;20007;-71
2022/09/19 23:52:07;;;;;;;;;;;;;;;12.35;100.00;100039.44;10507791;28;19932;-72
2022/09/19 23:57:10;;;;;;;;;;;;;;;12.25;100.00;100040.50;10507538;28;19924;-72
